Time;durP1;ratioP1;P1;durP2;ratioP2;P2;SDS_P1;SDS_P2;PMS_P1;PMS_P2;Temp;Humidity;BMP_temperature;BMP_pressure;BME280_temperature;BME280_humidity;BME280_pressure;Samples;Min_cycle;Max_cycle;Signal;HPM_P1;HPM_P2
2022/08/19 00:00:27;;;;;;;13.80;12.40;;;;;;;23.51;60.99;99878.55;110899;1251;21972;-78
2022/08/19 00:03:05;;;;;;;12.50;11.30;;;;;;;23.51;60.98;99872.73;110800;1251;21982;-79
2022/08/19 00:05:34;;;;;;;14.00;12.90;;;;;;;23.52;60.89;99870.69;110834;1251;21961;-78
2022/08/19 00:08:03;;;;;;;13.00;11.90;;;;;;;23.52;60.70;99869.23;110673;1254;22742;-79
2022/08/19 00:10:33;;;;;;;15.20;11.30;;;;;;;23.52;60.77;99869.55;110730;1251;22758;-78
2022/08/19 00:13:03;;;;;;;12.20;11.30;;;;;;;23.51;60.67;99869.18;110859;1251;21954;-78
2022/08/19 00:15:33;;;;;;;14.70;11.10;;;;;;;23.51;60.82;99869.33;110847;1250;22927;-79
2022/08/19 00:18:01;;;;;;;12.60;11.40;;;;;;;23.50;60.84;99867.23;110856;1250;21959;-80
2022/08/19 00:20:31;;;;;;;13.10;11.40;;;;;;;23.50;60.83;99867.06;110880;1250;22013;-79
2022/08/19 00:23:00;;;;;;;13.70;12.40;;;;;;;23.50;60.74;99866.58;110978;1250;21955;-80
2022/08/19 00:25:29;;;;;;;16.50;15.00;;;;;;;23.47;60.63;99869.05;110935;1247;21956;-79
2022/08/19 00:27:59;;;;;;;14.10;12.80;;;;;;;23.43;60.65;99873.57;110956;1248;21975;-79
2022/08/19 00:30:28;;;;;;;13.60;12.10;;;;;;;23.40;60.74;99874.16;110710;1251;22729;-79
2022/08/19 00:32:57;;;;;;;13.90;12.50;;;;;;;23.37;60.87;99877.16;110920;1247;21957;-77
2022/08/19 00:35:27;;;;;;;13.10;12.00;;;;;;;23.36;61.02;99878.06;110940;1247;23004;-80
2022/08/19 00:37:55;;;;;;;12.30;11.20;;;;;;;23.36;61.02;99871.81;110966;1248;21964;-80
2022/08/19 00:40:25;;;;;;;11.90;10.60;;;;;;;23.35;60.96;99865.98;110924;1248;23688;-80
2022/08/19 00:42:54;;;;;;;12.50;11.40;;;;;;;23.33;61.05;99864.95;110810;1247;23071;-79
2022/08/19 00:45:27;;;;;;;23.50;11.00;;;;;;;23.33;61.13;99861.55;110871;1250;21950;-79
2022/08/19 00:47:56;;;;;;;15.50;11.30;;;;;;;23.29;61.21;99858.91;110874;1247;23707;-78
2022/08/19 00:50:25;;;;;;;14.90;11.30;;;;;;;23.28;61.22;99855.40;110879;1248;22419;-78
2022/08/19 00:52:54;;;;;;;14.20;11.60;;;;;;;23.28;61.29;99855.41;110946;1248;22186;-80
2022/08/19 00:55:28;;;;;;;13.30;11.60;;;;;;;23.29;61.36;99850.66;110878;1248;23661;-80
2022/08/19 00:58:04;;;;;;;12.30;10.70;;;;;;;23.29;61.32;99844.73;110787;1248;23720;-80
2022/08/19 01:00:37;;;;;;;12.20;11.10;;;;;;;23.27;61.09;99839.66;110902;1247;21959;-80
2022/08/19 01:03:13;;;;;;;14.20;12.10;;;;;;;23.24;61.08;99834.20;110851;1247;23023;-80
2022/08/19 01:05:44;;;;;;;14.70;12.50;;;;;;;23.20;61.23;99832.25;110923;1247;21954;-79
2022/08/19 01:08:17;;;;;;;13.40;12.10;;;;;;;23.16;61.52;99826.09;110860;1251;21956;-79
2022/08/19 01:10:54;;;;;;;13.30;12.10;;;;;;;23.12;61.50;99822.45;110800;1251;24274;-79
2022/08/19 01:13:28;;;;;;;12.90;11.70;;;;;;;23.07;61.57;99825.73;111029;1248;21954;-78
2022/08/19 01:16:20;;;;;;;13.70;11.20;;;;;;;23.01;61.83;99828.46;110889;1247;21977;-78
2022/08/19 01:18:50;;;;;;;12.90;11.60;;;;;;;22.98;61.84;99823.38;110886;1247;21952;-79
2022/08/19 01:21:34;;;;;;;12.40;11.10;;;;;;;22.94;62.13;99814.57;110982;1247;23529;-79
2022/08/19 01:24:03;;;;;;;13.60;12.40;;;;;;;22.92;62.23;99812.88;110920;1248;21952;-79
2022/08/19 01:26:41;;;;;;;13.30;11.10;;;;;;;22.92;61.99;99813.19;110974;1247;22311;-79
2022/08/19 01:29:11;;;;;;;14.40;12.30;;;;;;;22.90;62.21;99811.46;110960;1247;22931;-79
2022/08/19 01:31:40;;;;;;;13.50;12.30;;;;;;;22.88;62.32;99803.10;110940;1248;21996;-78
2022/08/19 01:34:09;;;;;;;12.70;11.70;;;;;;;22.84;62.45;99795.37;110943;1248;21955;-78
2022/08/19 01:36:45;;;;;;;12.40;11.30;;;;;;;22.81;62.45;99800.91;110949;1248;21953;-80
2022/08/19 01:39:22;;;;;;;37.10;13.50;;;;;;;22.78;62.72;99802.56;110884;1247;22126;-77
2022/08/19 01:41:54;;;;;;;12.80;11.50;;;;;;;22.76;62.64;99800.98;110854;1248;21923;-79
2022/08/19 01:44:23;;;;;;;14.50;11.80;;;;;;;22.70;62.53;99799.08;110923;1250;22179;-79
2022/08/19 01:46:53;;;;;;;13.70;12.40;;;;;;;22.65;62.69;99795.66;110830;1247;21964;-79
2022/08/19 01:49:25;;;;;;;13.70;12.30;;;;;;;22.61;63.04;99793.80;111062;1248;22743;-77
2022/08/19 01:51:54;;;;;;;14.60;13.30;;;;;;;22.60;63.16;99786.04;110980;1247;21960;-79
2022/08/19 01:54:24;;;;;;;14.20;12.80;;;;;;;22.56;63.17;99779.99;110754;1248;24354;-79
2022/08/19 01:57:08;;;;;;;14.90;13.00;;;;;;;22.53;63.40;99774.27;110992;1248;21950;-78
2022/08/19 01:59:39;;;;;;;14.70;13.20;;;;;;;22.49;63.50;99767.50;110916;1250;21973;-79
2022/08/19 02:02:08;;;;;;;15.20;13.70;;;;;;;22.47;63.42;99770.46;110901;1250;22191;-79
2022/08/19 02:04:38;;;;;;;16.70;12.80;;;;;;;22.45;63.54;99772.06;111246;1247;22013;-78
2022/08/19 02:07:08;;;;;;;14.90;13.40;;;;;;;22.43;63.51;99767.05;110982;1247;21952;-78
2022/08/19 02:09:37;;;;;;;18.50;14.00;;;;;;;22.41;63.70;99762.73;110919;1247;21949;-78
2022/08/19 02:12:08;;;;;;;14.20;12.60;;;;;;;22.41;63.80;99761.55;110721;1249;23696;-78
2022/08/19 02:14:37;;;;;;;15.00;13.60;;;;;;;22.42;63.81;99756.00;110943;1247;23065;-78
2022/08/19 02:17:06;;;;;;;14.20;13.10;;;;;;;22.40;63.67;99755.09;111247;1247;22739;-78
2022/08/19 02:19:35;;;;;;;14.20;13.00;;;;;;;22.38;63.69;99752.81;110959;1248;23038;-78
2022/08/19 02:22:07;;;;;;;14.50;12.80;;;;;;;22.34;64.00;99761.56;111191;1247;21946;-77
2022/08/19 02:24:36;;;;;;;14.90;13.50;;;;;;;22.31;63.99;99765.85;110935;1250;22415;-77
2022/08/19 02:27:05;;;;;;;15.00;13.70;;;;;;;22.28;64.04;99764.90;110903;1248;23627;-79
2022/08/19 02:29:34;;;;;;;14.20;12.70;;;;;;;22.26;64.12;99764.08;110901;1248;22003;-78
2022/08/19 02:32:04;;;;;;;15.30;12.40;;;;;;;22.25;64.27;99760.96;111216;1247;22076;-78
2022/08/19 02:34:34;;;;;;;14.30;12.50;;;;;;;22.23;64.29;99755.84;111232;1247;21951;-78
2022/08/19 02:37:03;;;;;;;16.70;13.60;;;;;;;22.20;64.40;99756.09;111232;1247;21999;-78
2022/08/19 02:39:31;;;;;;;14.50;13.20;;;;;;;22.18;64.30;99752.52;110985;1247;21952;-78
2022/08/19 02:42:01;;;;;;;15.00;13.60;;;;;;;22.16;64.50;99750.02;111002;1247;21962;-77
2022/08/19 02:44:30;;;;;;;14.60;13.30;;;;;;;22.15;64.48;99746.45;111210;1247;22051;-77
2022/08/19 02:46:59;;;;;;;13.40;12.10;;;;;;;22.14;64.64;99743.71;110928;1248;24280;-78
2022/08/19 02:49:28;;;;;;;16.30;13.40;;;;;;;22.14;64.67;99741.91;110793;1247;23018;-77
2022/08/19 02:52:03;;;;;;;14.20;13.10;;;;;;;22.13;64.69;99735.94;111199;1247;22741;-77
2022/08/19 02:54:32;;;;;;;14.40;13.10;;;;;;;22.11;64.76;99733.02;110878;1247;21965;-78
2022/08/19 02:57:00;;;;;;;17.20;13.50;;;;;;;22.10;64.71;99731.83;110942;1247;23032;-78
2022/08/19 02:59:31;;;;;;;13.30;12.00;;;;;;;22.08;64.88;99734.02;111178;1247;21960;-77
2022/08/19 03:01:59;;;;;;;16.80;12.80;;;;;;;22.04;65.01;99733.19;110957;1247;21949;-79
2022/08/19 03:04:29;;;;;;;15.30;13.80;;;;;;;22.02;64.93;99734.79;110912;1247;22251;-77
2022/08/19 03:06:58;;;;;;;15.50;14.00;;;;;;;21.99;65.08;99741.05;111197;1247;23058;-78
2022/08/19 03:09:39;;;;;;;17.50;15.90;;;;;;;21.96;65.05;99747.60;110966;1248;21948;-78
2022/08/19 03:12:10;;;;;;;16.60;14.90;;;;;;;21.93;65.06;99746.70;110901;1248;22017;-78
2022/08/19 03:14:38;;;;;;;17.20;13.40;;;;;;;21.91;65.35;99746.42;110937;1247;21958;-78
2022/08/19 03:17:07;;;;;;;16.50;13.60;;;;;;;21.90;65.29;99748.95;110965;1248;22111;-78
2022/08/19 03:19:38;;;;;;;14.80;13.50;;;;;;;21.87;65.33;99748.23;111005;1248;21963;-78
2022/08/19 03:22:07;;;;;;;15.30;13.70;;;;;;;21.84;65.49;99749.02;111248;1247;22998;-78
2022/08/19 03:24:38;;;;;;;15.70;14.20;;;;;;;21.80;65.62;99743.88;111170;1247;22074;-78
2022/08/19 03:27:06;;;;;;;15.50;14.20;;;;;;;21.78;65.84;99744.77;111210;1247;23031;-79
2022/08/19 03:29:39;;;;;;;15.70;13.90;;;;;;;21.79;65.90;99745.47;111254;1247;23801;-78
2022/08/19 03:32:12;;;;;;;15.30;13.80;;;;;;;21.77;65.80;99747.23;111175;1247;21955;-78
2022/08/19 03:35:01;;;;;;;26.30;24.20;;;;;;;21.73;65.87;99745.05;111005;1248;21956;-78
2022/08/19 03:37:29;;;;;;;16.90;15.10;;;;;;;21.71;66.03;99750.56;110949;1247;21966;-79
2022/08/19 03:39:58;;;;;;;15.40;14.00;;;;;;;21.70;66.07;99753.40;110932;1249;21984;-78
2022/08/19 03:42:27;;;;;;;15.30;13.70;;;;;;;21.70;66.22;99750.02;110956;1247;21960;-79
2022/08/19 03:45:17;;;;;;;15.50;14.10;;;;;;;21.68;66.18;99746.19;110885;1247;21962;-78
2022/08/19 03:47:45;;;;;;;13.60;12.20;;;;;;;21.65;66.19;99743.63;110956;1247;23569;-80
2022/08/19 03:50:15;;;;;;;14.50;13.20;;;;;;;21.64;66.31;99746.90;110977;1247;23032;-80
2022/08/19 03:52:50;;;;;;;19.80;15.50;;;;;;;21.62;66.36;99748.39;110780;1250;22402;-78
2022/08/19 03:55:19;;;;;;;16.30;14.80;;;;;;;21.61;66.41;99745.55;111165;1247;23679;-78
2022/08/19 03:57:49;;;;;;;16.10;14.40;;;;;;;21.61;66.50;99743.98;110982;1247;21954;-77
2022/08/19 04:00:18;;;;;;;21.80;14.40;;;;;;;21.59;66.58;99745.84;110735;1247;21959;-78
2022/08/19 04:02:47;;;;;;;16.50;14.90;;;;;;;21.59;66.69;99751.48;110934;1249;21968;-78
2022/08/19 04:05:29;;;;;;;16.60;14.70;;;;;;;21.58;66.66;99750.14;111202;1246;21966;-78
2022/08/19 04:07:58;;;;;;;22.20;14.50;;;;;;;21.56;66.71;99753.55;111190;1247;22720;-77
2022/08/19 04:10:28;;;;;;;17.30;14.00;;;;;;;21.53;66.61;99754.71;111227;1247;21962;-78
2022/08/19 04:12:57;;;;;;;16.80;14.40;;;;;;;21.50;66.72;99754.20;110985;1248;22567;-79
2022/08/19 04:15:27;;;;;;;18.90;15.40;;;;;;;21.49;66.90;99759.56;110957;1248;23744;-78
2022/08/19 04:17:56;;;;;;;17.00;14.90;;;;;;;21.49;67.09;99762.78;111244;1247;22055;-78
2022/08/19 04:20:24;;;;;;;18.30;16.50;;;;;;;21.50;67.12;99760.38;110957;1247;23120;-78
2022/08/19 04:22:53;;;;;;;16.80;15.20;;;;;;;21.51;66.99;99760.27;110920;1247;21953;-78
2022/08/19 04:25:22;;;;;;;17.80;16.20;;;;;;;21.50;66.96;99762.63;111251;1247;21982;-78
2022/08/19 04:27:51;;;;;;;17.10;15.60;;;;;;;21.49;67.12;99766.66;110991;1250;21959;-79
2022/08/19 04:30:22;;;;;;;16.60;15.00;;;;;;;21.48;67.24;99763.73;111269;1247;22265;-79
2022/08/19 04:32:51;;;;;;;17.20;15.60;;;;;;;21.46;67.34;99755.98;110950;1248;21967;-79
2022/08/19 04:35:20;;;;;;;18.70;15.80;;;;;;;21.45;67.36;99752.05;111014;1248;21976;-78
2022/08/19 04:37:52;;;;;;;18.20;16.60;;;;;;;21.46;67.56;99753.14;111300;1247;21975;-79
2022/08/19 04:43:15;;;;;;;16.60;15.00;;;;;;;21.52;67.78;99772.65;111078;1248;22435;-77
2022/08/19 04:45:45;;;;;;;17.50;15.70;;;;;;;21.56;67.83;99774.09;111266;1247;21953;-80
2022/08/19 04:48:14;;;;;;;20.00;16.50;;;;;;;21.61;67.78;99771.13;111217;1247;21961;-78
2022/08/19 04:50:58;;;;;;;18.20;16.30;;;;;;;21.67;67.60;99770.09;111036;1247;21965;-79
2022/08/19 04:53:31;;;;;;;;;;;;;;;21.71;67.37;99767.07;111051;1247;22984;-78
2022/08/19 04:56:16;;;;;;;16.90;15.20;;;;;;;21.67;67.58;99769.56;111220;1247;23628;-79
2022/08/19 04:58:45;;;;;;;17.20;15.40;;;;;;;21.69;67.54;99773.08;111031;1247;21952;-79
2022/08/19 05:01:20;;;;;;;16.50;14.80;;;;;;;21.73;67.41;99768.44;110924;1247;23703;-79
2022/08/19 05:03:49;;;;;;;17.30;15.20;;;;;;;21.79;67.37;99762.63;111055;1247;22218;-79
2022/08/19 05:06:21;;;;;;;16.80;14.30;;;;;;;21.86;67.28;99758.48;111310;1247;22020;-78
2022/08/19 05:08:49;;;;;;;15.80;14.30;;;;;;;21.91;67.35;99756.55;110974;1247;23005;-78
2022/08/19 05:11:28;;;;;;;15.60;14.20;;;;;;;21.95;67.27;99758.89;111297;1247;21955;-79
2022/08/19 05:13:57;;;;;;;14.40;13.20;;;;;;;22.01;67.09;99759.75;110949;1247;22721;-78
2022/08/19 05:16:27;;;;;;;16.50;14.30;;;;;;;22.10;67.02;99766.20;110909;1247;23030;-78
2022/08/19 05:24:34;;;;;;;14.00;12.80;;;;;;;22.37;66.76;99774.60;111011;1247;23664;-78
2022/08/19 05:27:05;;;;;;;13.90;12.60;;;;;;;22.47;66.53;99770.08;110910;1247;21971;-78
2022/08/19 05:29:34;;;;;;;;;;;;;;;22.54;66.22;99766.29;110828;1250;22407;-79
2022/08/19 05:32:08;;;;;;;14.00;12.40;;;;;;;22.54;66.18;99760.60;111212;1247;21947;-78
2022/08/19 05:34:38;;;;;;;16.10;13.70;;;;;;;22.61;66.02;99758.33;110931;1248;22559;-79
2022/08/19 05:37:08;;;;;;;16.40;14.30;;;;;;;22.71;66.02;99755.73;111000;1248;23133;-78
2022/08/19 05:39:38;;;;;;;17.40;12.50;;;;;;;22.84;65.80;99759.07;110929;1247;22955;-77
2022/08/19 05:42:10;;;;;;;15.60;13.00;;;;;;;22.98;65.63;99762.65;110826;1249;22745;-75
2022/08/19 05:44:46;;;;;;;16.60;12.80;;;;;;;23.13;65.15;99768.86;110978;1250;21963;-77
2022/08/19 05:47:18;;;;;;;14.60;12.80;;;;;;;23.29;64.84;99771.96;110900;1250;22270;-78
2022/08/19 05:49:50;;;;;;;14.00;12.60;;;;;;;23.44;64.31;99774.48;110655;1250;23569;-78
2022/08/19 05:52:19;;;;;;;15.00;13.60;;;;;;;23.60;64.12;99770.14;111008;1250;21944;-78
2022/08/19 05:54:55;;;;;;;14.10;12.40;;;;;;;23.80;63.74;99770.89;110738;1250;21956;-78
2022/08/19 05:57:48;;;;;;;15.60;13.50;;;;;;;24.01;63.26;99768.20;110700;1251;21963;-78
2022/08/19 06:00:49;;;;;;;;;;;;;;;;;;;;;
2022/08/19 06:03:47;;;;;;;;;;;;;;;;;;;;;
2022/08/19 06:06:34;;;;;;;15.90;14.30;;;;;;;24.52;61.20;99773.33;110521;1253;22010;-78
2022/08/19 06:09:41;;;;;;;;;;;;;;;;;;;;;
2022/08/19 06:12:51;;;;;;;;;;;;;;;;;;;;;
2022/08/19 06:16:15;;;;;;;;;;;;;;;;;;;;;
2022/08/19 06:19:29;;;;;;;14.40;12.90;;;;;;;25.23;59.68;99768.70;110017;1260;22080;-77
2022/08/19 06:22:12;;;;;;;14.30;12.80;;;;;;;25.47;59.11;99766.70;110263;1256;21980;-77
2022/08/19 06:25:10;;;;;;;14.80;13.10;;;;;;;25.69;58.39;99765.47;110088;1256;22235;-77
2022/08/19 06:29:30;;;;;;;14.10;12.70;;;;;;;25.84;57.54;99764.88;110185;1256;22268;-83
2022/08/19 06:32:20;;;;;;;13.70;11.70;;;;;;;25.90;56.93;99769.72;110916;1247;21954;-77
2022/08/19 06:35:13;;;;;;;15.20;11.80;;;;;;;25.94;56.82;99774.55;110775;1250;21956;-77
2022/08/19 06:37:59;;;;;;;18.20;11.90;;;;;;;25.99;56.76;99775.81;108197;1249;3667649;-77
2022/08/19 06:40:31;;;;;;;18.40;12.30;;;;;;;26.12;56.97;99779.65;110973;1247;23584;-78
2022/08/19 06:43:08;;;;;;;13.70;11.30;;;;;;;26.28;56.84;99780.55;110992;1247;22545;-78
2022/08/19 06:45:39;;;;;;;14.80;10.50;;;;;;;26.48;56.38;99784.42;111271;1247;23594;-78
2022/08/19 06:48:18;;;;;;;12.10;10.90;;;;;;;26.63;55.52;99781.50;110963;1247;21960;-77
2022/08/19 06:51:06;;;;;;;15.80;10.40;;;;;;;26.78;54.89;99781.72;111020;1247;21965;-78
2022/08/19 06:53:37;;;;;;;14.60;11.00;;;;;;;26.90;54.64;99784.86;110799;1248;21976;-78
2022/08/19 06:56:29;;;;;;;13.50;11.20;;;;;;;27.02;54.01;99785.42;111030;1247;22986;-78
2022/08/19 06:59:30;;;;;;;11.00;10.00;;;;;;;27.15;53.83;99786.36;111015;1246;23047;-77
2022/08/19 07:02:13;;;;;;;11.10;9.80;;;;;;;27.32;53.39;99785.33;110968;1247;23749;-78
2022/08/19 07:04:49;;;;;;;13.00;10.50;;;;;;;27.47;53.13;99787.27;110765;1250;21966;-79
2022/08/19 07:07:31;;;;;;;14.00;10.90;;;;;;;27.69;52.78;99796.19;110902;1247;22470;-78
2022/08/19 07:10:33;;;;;;;12.80;9.80;;;;;;;27.94;52.12;99787.95;110473;1256;23570;-78
2022/08/19 07:13:07;;;;;;;11.10;9.80;;;;;;;28.12;51.62;99790.79;110006;1258;22125;-78
2022/08/19 07:15:46;;;;;;;11.70;9.80;;;;;;;28.29;51.27;99797.10;109918;1259;23155;-78
2022/08/19 07:18:37;;;;;;;12.80;10.10;;;;;;;28.54;51.07;99808.89;110154;1259;21974;-78
2022/08/19 07:21:28;;;;;;;11.60;9.70;;;;;;;28.82;50.27;99816.85;109687;1260;21968;-78
2022/08/19 07:24:09;;;;;;;10.90;9.50;;;;;;;29.03;49.29;99820.30;110026;1259;23047;-81
2022/08/19 07:26:42;;;;;;;12.30;10.60;;;;;;;29.19;48.93;99816.44;109840;1259;23628;-79
2022/08/19 07:29:27;;;;;;;11.90;9.70;;;;;;;29.47;49.10;99815.39;109352;1266;22266;-78
2022/08/19 07:32:14;;;;;;;;;;;;;;;;;;;;;
2022/08/19 07:34:54;;;;;;;11.90;9.60;;;;;;;29.91;47.07;99832.69;109365;1264;23137;-78
2022/08/19 07:37:31;;;;;;;13.70;10.10;;;;;;;30.01;46.16;99831.32;109206;1263;23131;-78
2022/08/19 07:40:04;;;;;;;12.30;10.50;;;;;;;30.15;46.30;99831.64;109233;1263;21981;-78
2022/08/19 07:42:46;;;;;;;11.10;10.00;;;;;;;30.34;46.09;99828.39;110000;1256;25123;-80
2022/08/19 07:45:38;;;;;;;10.50;8.50;;;;;;;30.53;45.34;99830.69;110296;1256;21973;-77
2022/08/19 07:48:14;;;;;;;11.40;9.50;;;;;;;30.71;45.27;99828.83;110777;1250;22026;-78
2022/08/19 07:51:20;;;;;;;11.40;10.00;;;;;;;30.90;44.55;99832.25;110615;1256;22214;-81
2022/08/19 07:54:07;;;;;;;11.20;10.20;;;;;;;30.98;43.97;99836.99;109899;1260;22552;-78
2022/08/19 07:56:37;;;;;;;10.90;8.80;;;;;;;30.96;43.88;99837.36;109818;1261;21982;-78
2022/08/19 07:59:45;;;;;;;10.70;9.20;;;;;;;30.88;43.56;99840.90;109704;1260;21955;-81
2022/08/19 08:02:24;;;;;;;11.30;9.10;;;;;;;30.80;44.06;99847.52;110121;1260;21953;-80
2022/08/19 08:09:15;;;;;;;10.30;9.20;;;;;;;30.95;44.41;99861.52;110048;1257;21984;-80
2022/08/19 08:12:07;;;;;;;;;;;;;;;31.02;43.52;99867.04;110082;1259;22394;-81
2022/08/19 08:15:44;;;;;;;;;;;;;;;;;;;;;
2022/08/19 08:19:14;;;;;;;;;;;;;;;;;;;;;
2022/08/19 08:22:09;;;;;;;10.80;8.80;;;;;;;31.21;43.21;99872.54;109437;1266;21985;-82
2022/08/19 08:25:19;;;;;;;11.40;9.80;;;;;;;31.45;43.09;99874.29;109047;1267;22001;-79
2022/08/19 08:28:24;;;;;;;10.20;8.60;;;;;;;31.86;42.89;99884.17;109226;1267;24496;-79
2022/08/19 08:31:10;;;;;;;9.30;8.30;;;;;;;32.27;41.31;99884.33;109237;1261;23139;-79
2022/08/19 08:33:52;;;;;;;12.30;9.00;;;;;;;32.41;40.02;99879.51;110184;1261;23872;-79
2022/08/19 08:36:38;;;;;;;;;;;;;;;;;;;;;
2022/08/19 08:39:23;;;;;;;10.70;8.70;;;;;;;32.88;39.35;99875.59;109189;1267;22098;-79
2022/08/19 08:42:11;;;;;;;12.40;9.40;;;;;;;32.96;37.79;99878.27;108758;1273;22014;-80
2022/08/19 08:45:14;;;;;;;15.10;9.00;;;;;;;33.03;37.82;99871.94;108848;1266;22096;-79
2022/08/19 08:47:52;;;;;;;11.20;8.80;;;;;;;33.25;37.41;99870.45;109582;1260;23710;-80
2022/08/19 08:50:42;;;;;;;15.30;8.90;;;;;;;33.39;36.64;99870.77;109977;1261;21987;-79
2022/08/19 08:53:43;;;;;;;12.40;8.30;;;;;;;33.54;36.78;99861.79;110138;1260;22177;-80
2022/08/19 08:56:40;;;;;;;12.00;8.40;;;;;;;33.62;36.11;99859.84;109238;1262;23089;-78
2022/08/19 09:00:41;;;;;;;;;;;;;;;;;;;;;
2022/08/19 09:03:31;;;;;;;11.10;8.40;;;;;;;34.05;36.07;99851.40;109647;1261;23075;-79
2022/08/19 09:06:45;;;;;;;11.40;8.40;;;;;;;34.18;35.33;99843.66;110000;1257;21975;-78
2022/08/19 09:09:50;;;;;;;10.20;8.40;;;;;;;34.28;34.99;99845.57;110395;1256;22427;-78
2022/08/19 09:12:53;;;;;;;13.00;8.10;;;;;;;34.29;34.66;99848.10;109977;1259;21956;-80
2022/08/19 09:15:44;;;;;;;9.40;8.10;;;;;;;34.34;34.41;99855.70;110288;1253;21969;-78
2022/08/19 09:19:07;;;;;;;11.10;8.40;;;;;;;34.44;34.18;99857.77;110474;1252;21998;-78
2022/08/19 09:21:45;;;;;;;11.20;8.50;;;;;;;34.66;34.80;99857.92;110394;1253;22093;-78
2022/08/19 09:24:42;;;;;;;;;;;;;;;;;;;;;
2022/08/19 09:27:39;;;;;;;8.30;7.40;;;;;;;35.03;33.33;99854.61;110522;1253;23658;-78
2022/08/19 09:30:44;;;;;;;11.00;7.90;;;;;;;35.17;33.53;99852.28;110744;1247;21967;-78
2022/08/19 09:33:25;;;;;;;13.40;7.70;;;;;;;35.39;32.85;99849.64;110784;1253;21971;-80
2022/08/19 09:36:38;;;;;;;8.80;6.80;;;;;;;35.47;32.48;99846.98;109922;1262;23678;-79
2022/08/19 09:39:54;;;;;;;10.80;7.50;;;;;;;35.68;32.68;99853.42;109832;1261;22392;-79
2022/08/19 09:43:02;;;;;;;10.70;7.30;;;;;;;35.67;31.59;99847.90;109958;1260;22029;-78
2022/08/19 09:46:00;;;;;;;11.70;7.10;;;;;;;35.75;32.19;99844.90;109964;1260;22007;-80
2022/08/19 09:48:36;;;;;;;11.70;7.60;;;;;;;36.02;31.98;99843.71;109234;1265;22000;-78
2022/08/19 09:51:16;;;;;;;10.20;7.50;;;;;;;36.12;31.15;99841.95;109557;1261;23908;-79
2022/08/19 09:54:06;;;;;;;11.30;7.20;;;;;;;36.07;30.88;99844.08;109334;1267;22643;-78
2022/08/19 09:57:01;;;;;;;10.70;6.30;;;;;;;35.95;30.51;99845.30;109047;1267;21987;-79
2022/08/19 09:59:39;;;;;;;13.90;6.50;;;;;;;36.01;30.81;99844.95;109099;1267;23358;-79
2022/08/19 10:02:12;;;;;;;16.00;7.30;;;;;;;36.19;30.41;99846.31;109249;1267;21991;-80
2022/08/19 10:08:05;;;;;;;;;;;;;;;;;;;;;
2022/08/19 10:10:46;;;;;;;9.30;6.90;;;;;;;36.38;29.33;99826.83;109828;1262;21974;-79
2022/08/19 10:13:31;;;;;;;13.00;7.10;;;;;;;36.09;29.62;99824.43;110335;1254;22068;-78
2022/08/19 10:16:25;;;;;;;;;;;;;;;;;;;;;
2022/08/19 10:19:10;;;;;;;9.00;6.90;;;;;;;35.96;30.40;99819.13;110004;1260;24615;-78
2022/08/19 10:21:45;;;;;;;12.00;7.00;;;;;;;36.17;30.57;99811.35;109016;1267;21985;-78
2022/08/19 10:24:23;;;;;;;9.90;6.40;;;;;;;36.39;29.87;99808.33;109288;1263;24501;-79
2022/08/19 10:27:00;;;;;;;11.90;7.00;;;;;;;36.45;29.32;99812.70;109623;1263;22863;-79
2022/08/19 10:30:06;;;;;;;10.90;6.30;;;;;;;36.55;29.72;99819.81;109404;1261;22744;-79
2022/08/19 10:32:47;;;;;;;12.20;6.60;;;;;;;36.77;28.67;99824.37;109522;1262;21976;-79
2022/08/19 10:35:48;;;;;;;23.00;7.40;;;;;;;36.67;28.19;99823.65;109520;1261;24369;-78
2022/08/19 10:38:47;;;;;;;8.80;6.30;;;;;;;36.46;28.87;99815.11;109010;1267;23754;-78
2022/08/19 10:41:39;;;;;;;11.90;6.40;;;;;;;36.32;28.93;99812.14;109595;1260;21989;-78
2022/08/19 10:44:13;;;;;;;7.50;5.50;;;;;;;36.22;28.86;99814.04;109588;1261;22277;-79
2022/08/19 10:46:47;;;;;;;10.90;5.70;;;;;;;36.15;28.87;99811.48;110013;1254;23694;-78
2022/08/19 10:49:31;;;;;;;6.20;5.10;;;;;;;36.06;28.20;99811.24;110310;1255;21987;-79
2022/08/19 10:52:36;;;;;;;10.90;5.80;;;;;;;35.84;28.10;99806.63;110720;1254;22051;-80
2022/08/19 10:58:03;;;;;;;12.60;7.30;;;;;;;35.44;29.32;99810.58;110446;1254;23596;-79
2022/08/19 11:00:36;;;;;;;20.30;7.90;;;;;;;35.25;29.95;99812.59;110646;1253;23041;-80
2022/08/19 11:03:18;;;;;;;12.90;7.20;;;;;;;35.00;29.78;99815.72;110952;1253;21959;-79
2022/08/19 11:06:05;;;;;;;14.10;6.70;;;;;;;34.55;30.08;99819.30;110623;1253;23568;-77
2022/08/19 11:08:47;;;;;;;14.20;6.90;;;;;;;34.29;29.86;99817.48;110489;1250;23789;-76
2022/08/19 11:11:21;;;;;;;9.20;5.20;;;;;;;34.11;30.70;99815.38;110810;1250;22010;-77
2022/08/19 11:13:51;;;;;;;13.30;6.10;;;;;;;34.08;31.09;99812.15;110798;1250;22019;-77
2022/08/19 11:16:26;;;;;;;14.10;7.40;;;;;;;34.04;31.00;99811.59;110589;1250;21962;-77
2022/08/19 11:18:59;;;;;;;13.90;6.50;;;;;;;33.92;31.35;99814.05;110912;1248;23060;-78
2022/08/19 11:21:35;;;;;;;11.80;4.80;;;;;;;33.75;31.35;99818.29;110966;1249;21979;-76
2022/08/19 11:24:12;;;;;;;12.20;5.00;;;;;;;33.66;30.77;99813.73;110904;1250;21966;-77
2022/08/19 11:27:09;;;;;;;11.30;5.20;;;;;;;33.56;30.58;99813.15;110608;1250;23049;-75
2022/08/19 11:29:39;;;;;;;10.20;5.20;;;;;;;33.46;30.67;99807.83;110574;1250;22185;-76
2022/08/19 11:32:12;;;;;;;10.50;5.20;;;;;;;33.43;31.00;99802.66;110221;1256;21978;-77
2022/08/19 11:34:44;;;;;;;11.00;5.90;;;;;;;33.42;31.25;99797.49;110359;1254;21972;-80
2022/08/19 11:37:15;;;;;;;13.20;5.20;;;;;;;33.38;31.39;99798.54;110333;1254;22025;-77
2022/08/19 11:39:45;;;;;;;14.20;5.80;;;;;;;33.37;31.30;99804.34;109995;1259;22206;-78
2022/08/19 11:45:13;;;;;;;12.70;5.80;;;;;;;33.42;30.82;99795.31;109740;1262;22028;-77
2022/08/19 11:47:47;;;;;;;11.80;5.00;;;;;;;33.38;30.93;99801.56;109222;1264;22514;-78
2022/08/19 11:50:23;;;;;;;10.10;5.00;;;;;;;33.46;30.79;99805.19;109643;1262;21985;-79
2022/08/19 11:52:57;;;;;;;13.10;4.60;;;;;;;33.56;30.47;99805.33;109514;1262;22306;-79
2022/08/19 11:55:26;;;;;;;11.80;4.90;;;;;;;33.63;30.16;99806.67;109583;1262;22102;-79
2022/08/19 11:57:56;;;;;;;;;;;;;;;33.71;30.39;99809.80;109735;1254;23704;-77
2022/08/19 12:00:28;;;;;;;8.60;4.10;;;;;;;33.70;30.34;99808.66;110332;1256;21974;-78
2022/08/19 12:02:59;;;;;;;10.20;6.90;;;;;;;33.69;30.49;99803.55;110291;1256;23043;-79
2022/08/19 12:05:37;;;;;;;10.00;4.80;;;;;;;33.73;30.37;99797.42;110015;1256;22729;-78
2022/08/19 12:08:23;;;;;;;7.90;4.90;;;;;;;33.72;30.64;99796.38;110535;1256;21974;-80
2022/08/19 12:10:56;;;;;;;11.10;4.60;;;;;;;33.69;31.00;99799.23;110473;1251;22030;-79
2022/08/19 12:13:41;;;;;;;7.40;4.00;;;;;;;33.66;30.19;99801.08;110775;1251;22390;-78
2022/08/19 12:16:33;;;;;;;8.80;4.40;;;;;;;33.63;29.46;99797.20;110943;1249;21976;-79
2022/08/19 12:19:07;;;;;;;11.60;5.70;;;;;;;33.63;29.37;99793.30;110799;1250;23663;-79
2022/08/19 12:21:36;;;;;;;8.90;4.40;;;;;;;33.65;29.72;99799.58;110563;1254;22007;-80
2022/08/19 12:24:22;;;;;;;8.20;4.20;;;;;;;33.66;29.64;99802.88;110332;1254;23094;-79
2022/08/19 12:26:55;;;;;;;8.20;4.60;;;;;;;33.67;29.32;99803.06;110528;1256;21980;-78
2022/08/19 12:29:32;;;;;;;8.90;4.90;;;;;;;33.68;29.72;99801.85;110714;1254;21959;-76
2022/08/19 12:32:05;;;;;;;10.20;4.70;;;;;;;33.73;29.62;99800.45;110412;1256;23599;-76
2022/08/19 12:34:39;;;;;;;14.10;5.00;;;;;;;33.77;29.60;99796.46;110318;1256;24294;-79
2022/08/19 12:37:11;;;;;;;8.80;4.40;;;;;;;33.81;29.60;99797.14;110534;1254;24991;-77
2022/08/19 12:39:43;;;;;;;21.50;4.60;;;;;;;33.85;29.66;99798.00;110449;1256;23628;-80
2022/08/19 12:42:14;;;;;;;9.40;4.20;;;;;;;33.89;29.45;99802.37;110493;1254;23573;-79
2022/08/19 12:44:52;;;;;;;9.60;5.60;;;;;;;33.88;29.17;99801.63;110481;1254;21976;-79
2022/08/19 12:47:32;;;;;;;14.50;4.90;;;;;;;33.85;29.51;99806.61;110786;1250;23570;-79
2022/08/19 12:50:08;;;;;;;12.50;4.90;;;;;;;33.80;29.81;99807.10;110885;1250;23780;-79